createdAt,value
2019-03-02T00:01:26.145Z,6.67
2019-03-02T00:03:53.434Z,6.30
2019-03-02T00:06:20.740Z,6.60
2019-03-02T00:08:48.124Z,6.12
2019-03-02T00:11:17.860Z,7.10
2019-03-02T00:13:44.696Z,7.00
2019-03-02T00:16:12.894Z,6.42
2019-03-02T00:18:41.668Z,5.83
2019-03-02T00:21:09.079Z,7.08
2019-03-02T00:23:36.443Z,5.80
2019-03-02T00:26:06.184Z,6.00
2019-03-02T00:28:35.539Z,6.22
2019-03-02T00:31:01.788Z,6.65
2019-03-02T00:33:29.175Z,7.05
2019-03-02T00:35:56.536Z,6.55
2019-03-02T00:38:23.925Z,7.17
2019-03-02T00:40:51.220Z,5.85
2019-03-02T00:43:18.541Z,6.33
2019-03-02T00:45:48.838Z,6.42
2019-03-02T00:48:15.105Z,6.90
2019-03-02T00:50:42.449Z,5.70
2019-03-02T00:53:09.780Z,6.25
2019-03-02T00:55:37.111Z,5.58
2019-03-02T00:58:05.665Z,5.97
2019-03-02T01:00:32.968Z,6.05
2019-03-02T01:03:00.345Z,7.47
2019-03-02T01:05:27.796Z,5.28
2019-03-02T01:07:55.932Z,6.25
2019-03-02T01:10:24.187Z,6.17
2019-03-02T01:12:51.477Z,6.37
2019-03-02T01:15:18.841Z,6.70
2019-03-02T01:17:46.135Z,5.45
2019-03-02T01:20:14.112Z,5.20
2019-03-02T01:22:41.462Z,6.10
2019-03-02T01:25:10.430Z,5.40
2019-03-02T01:27:39.241Z,5.10
2019-03-02T01:30:08.140Z,5.60
2019-03-02T01:32:35.460Z,5.00
2019-03-02T01:35:02.825Z,5.80
2019-03-02T01:37:30.193Z,5.10
2019-03-02T01:40:00.934Z,5.80
2019-03-02T01:42:29.704Z,5.92
2019-03-02T01:44:56.318Z,6.05
2019-03-02T01:47:23.607Z,5.80
2019-03-02T01:49:50.937Z,6.00
2019-03-02T01:52:18.219Z,5.55
2019-03-02T01:54:45.583Z,5.70
2019-03-02T01:57:13.827Z,6.60
2019-03-02T01:59:41.933Z,6.60
2019-03-02T02:02:09.226Z,6.53
2019-03-02T02:04:36.583Z,6.00
2019-03-02T02:07:04.004Z,5.95
2019-03-02T02:09:31.294Z,6.25
2019-03-02T02:11:58.663Z,5.90
2019-03-02T02:14:25.966Z,6.65
2019-03-02T02:16:53.335Z,6.12
2019-03-02T02:19:20.699Z,7.15
2019-03-02T02:21:48.116Z,6.55
2019-03-02T02:24:15.405Z,6.95
2019-03-02T02:26:43.885Z,6.47
2019-03-02T02:29:11.749Z,5.80
2019-03-02T02:31:44.313Z,6.47
2019-03-02T02:34:08.146Z,6.12
2019-03-02T02:36:35.572Z,5.90
2019-03-02T02:39:04.210Z,6.90
2019-03-02T02:41:31.603Z,6.70
2019-03-02T02:44:00.418Z,6.47
2019-03-02T02:46:32.492Z,6.65
2019-03-02T02:48:56.974Z,6.85
2019-03-02T02:51:24.302Z,6.62
2019-03-02T02:53:51.665Z,6.42
2019-03-02T02:56:19.910Z,6.20
2019-03-02T02:58:55.292Z,7.42
2019-03-02T03:01:17.091Z,5.90
2019-03-02T03:03:44.449Z,6.85
2019-03-02T03:06:11.821Z,7.22
2019-03-02T03:08:40.234Z,6.87
2019-03-02T03:11:08.333Z,6.62
2019-03-02T03:13:35.911Z,7.42
2019-03-02T03:16:05.936Z,8.50
2019-03-02T03:18:33.256Z,7.25
2019-03-02T03:21:00.715Z,7.42
2019-03-02T03:23:28.004Z,6.90
2019-03-02T03:25:57.139Z,7.45
2019-03-02T03:28:25.983Z,7.20
2019-03-02T03:30:53.369Z,6.90
2019-03-02T03:33:20.673Z,6.92
2019-03-02T03:35:51.779Z,7.33
2019-03-02T03:38:17.013Z,8.05
2019-03-02T03:40:44.298Z,8.25
2019-03-02T03:43:11.688Z,7.92
2019-03-02T03:45:43.407Z,8.43
2019-03-02T03:48:08.178Z,8.50
2019-03-02T03:50:35.546Z,7.60
2019-03-02T03:53:02.829Z,7.40
2019-03-02T03:55:30.194Z,8.45
2019-03-02T03:58:00.687Z,9.48
2019-03-02T04:00:26.538Z,8.80
2019-03-02T04:02:53.887Z,8.75
2019-03-02T04:05:21.279Z,7.70
2019-03-02T04:07:49.771Z,7.78
2019-03-02T04:10:24.536Z,8.60
2019-03-02T04:12:46.757Z,7.33
2019-03-02T04:15:14.271Z,7.95
2019-03-02T04:17:41.732Z,8.73
2019-03-02T04:20:12.552Z,7.65
2019-03-02T04:22:39.824Z,8.18
2019-03-02T04:25:13.115Z,7.62
2019-03-02T04:27:37.763Z,7.85
2019-03-02T04:30:06.612Z,7.28
2019-03-02T04:32:34.031Z,7.45
2019-03-02T04:35:01.401Z,7.33
2019-03-02T04:37:28.758Z,6.50
2019-03-02T04:39:57.464Z,6.28
2019-03-02T04:42:25.043Z,6.10
2019-03-02T04:44:52.385Z,6.12
2019-03-02T04:47:22.539Z,6.90
2019-03-02T04:49:51.478Z,6.45
2019-03-02T04:54:55.952Z,5.62
2019-03-02T04:57:23.342Z,6.42
2019-03-02T04:59:53.630Z,6.80
2019-03-02T05:02:20.466Z,6.70
2019-03-02T05:04:47.863Z,6.15
2019-03-02T05:07:15.225Z,7.08
2019-03-02T05:09:42.547Z,6.80
2019-03-02T05:12:11.644Z,6.67
2019-03-02T05:14:40.160Z,6.05
2019-03-02T05:17:08.475Z,6.22
2019-03-02T05:19:35.908Z,6.65
2019-03-02T05:22:03.267Z,6.85
2019-03-02T05:24:30.673Z,6.15
2019-03-02T05:26:58.089Z,5.92
2019-03-02T05:34:42.337Z,6.35
2019-03-02T05:37:09.776Z,7.25
2019-03-02T05:39:40.255Z,5.95
2019-03-02T05:42:10.411Z,6.55
2019-03-02T05:44:36.727Z,6.22
2019-03-02T05:47:04.021Z,6.00
2019-03-02T05:49:31.393Z,6.30
2019-03-02T05:51:58.677Z,6.05
2019-03-02T05:54:25.981Z,6.28
2019-03-02T05:56:53.269Z,5.72
2019-03-02T05:59:22.860Z,5.95
2019-03-02T06:07:14.031Z,6.22
2019-03-02T06:09:41.419Z,5.97
2019-03-02T06:12:11.882Z,5.83
2019-03-02T06:14:37.885Z,6.12
2019-03-02T06:17:05.272Z,5.85
2019-03-02T06:19:32.645Z,6.08
2019-03-02T06:22:00.064Z,5.92
2019-03-02T06:24:27.490Z,5.85
2019-03-02T06:26:54.846Z,6.30
2019-03-02T06:29:24.656Z,6.22
2019-03-02T06:31:54.016Z,6.00
2019-03-02T06:34:20.948Z,6.75
2019-03-02T06:36:48.238Z,6.20
2019-03-02T06:39:15.555Z,6.80
2019-03-02T06:41:42.911Z,6.12
2019-03-02T06:44:10.229Z,5.80
2019-03-02T06:46:37.631Z,5.95
2019-03-02T06:49:07.484Z,6.05
2019-03-02T06:51:34.584Z,6.50
2019-03-02T06:54:01.915Z,6.00
2019-03-02T06:56:29.192Z,6.37
2019-03-02T06:58:56.483Z,6.40
2019-03-02T07:01:24.834Z,6.08
2019-03-02T07:03:52.996Z,6.35
2019-03-02T07:06:20.352Z,6.33
2019-03-02T07:08:47.658Z,6.75
2019-03-02T07:11:14.930Z,6.90
2019-03-02T07:13:42.268Z,7.05
2019-03-02T07:16:09.619Z,7.92
2019-03-02T07:18:44.612Z,7.55
2019-03-02T07:21:11.916Z,6.17
2019-03-02T07:23:39.340Z,7.12
2019-03-02T07:26:06.684Z,6.80
2019-03-02T07:28:34.010Z,6.92
2019-03-02T07:31:01.386Z,6.12
2019-03-02T07:33:28.686Z,7.30
2019-03-02T07:35:56.753Z,7.37
2019-03-02T07:38:24.142Z,7.12
2019-03-02T07:40:51.443Z,7.75
2019-03-02T07:43:18.845Z,7.30
2019-03-02T07:45:46.124Z,7.05
2019-03-02T07:48:13.419Z,7.17
2019-03-02T07:50:40.780Z,6.90
2019-03-02T07:53:09.629Z,7.15
2019-03-02T07:55:37.038Z,7.17
2019-03-02T07:58:04.446Z,6.55
2019-03-02T08:00:31.758Z,7.08
2019-03-02T08:02:59.064Z,6.75
2019-03-02T08:05:26.360Z,7.42
2019-03-02T08:07:53.648Z,7.33
2019-03-02T08:10:22.531Z,7.28
2019-03-02T08:12:49.855Z,6.10
2019-03-02T08:15:24.246Z,7.22
2019-03-02T08:17:50.449Z,7.08
2019-03-02T08:20:20.821Z,7.37
2019-03-02T08:22:47.049Z,7.15
2019-03-02T08:25:14.361Z,6.85
2019-03-02T08:27:42.112Z,6.40
2019-03-02T08:30:16.786Z,6.90
2019-03-02T08:32:44.163Z,7.30
2019-03-02T08:35:12.817Z,7.10
2019-03-02T08:37:40.398Z,7.20
2019-03-02T08:40:10.299Z,6.95
2019-03-02T08:42:38.058Z,8.35
2019-03-02T08:45:09.553Z,7.53
2019-03-02T08:47:36.861Z,6.97
2019-03-02T08:50:05.645Z,7.72
2019-03-02T08:52:33.101Z,7.50
2019-03-02T08:55:00.518Z,8.30
2019-03-02T08:57:27.871Z,9.10
2019-03-02T08:59:56.311Z,8.90
2019-03-02T09:02:23.773Z,9.18
2019-03-02T09:04:51.607Z,10.20
2019-03-02T09:07:18.979Z,10.13
2019-03-02T09:09:46.323Z,10.75
2019-03-02T09:12:13.999Z,11.08
2019-03-02T09:14:41.419Z,11.05
2019-03-02T09:17:08.833Z,11.25
2019-03-02T09:19:36.170Z,11.85
2019-03-02T09:22:03.470Z,11.40
2019-03-02T09:24:30.921Z,12.75
2019-03-02T09:26:58.295Z,10.90
2019-03-02T09:29:25.731Z,12.80
2019-03-02T09:31:53.095Z,12.53
2019-03-02T09:34:20.493Z,12.73
2019-03-02T09:36:47.859Z,17.15
2019-03-02T09:39:15.219Z,13.50
2019-03-02T09:41:42.587Z,15.95
2019-03-02T09:44:11.233Z,14.55
2019-03-02T09:46:38.604Z,13.90
2019-03-02T09:49:07.428Z,14.40
2019-03-02T09:51:35.122Z,14.55
2019-03-02T09:54:02.414Z,15.53
2019-03-02T09:56:29.787Z,14.70
2019-03-02T09:58:57.982Z,15.10
2019-03-02T10:01:26.246Z,16.52
2019-03-02T10:03:53.643Z,15.40
2019-03-02T10:06:21.755Z,18.10
2019-03-02T10:08:50.158Z,17.32
2019-03-02T10:11:19.483Z,18.45
2019-03-02T10:13:46.833Z,16.42
2019-03-02T10:16:14.213Z,19.35
2019-03-02T10:18:41.533Z,18.30
2019-03-02T10:21:08.881Z,19.15
2019-03-02T10:23:38.934Z,17.40
2019-03-02T10:26:09.270Z,17.27
2019-03-02T10:28:36.665Z,17.40
2019-03-02T10:31:06.169Z,17.40
2019-03-02T10:33:33.044Z,18.75
2019-03-02T10:36:00.403Z,18.00
2019-03-02T10:38:27.691Z,18.07
2019-03-02T10:40:55.063Z,17.20
2019-03-02T10:43:22.365Z,17.12
2019-03-02T10:45:49.674Z,15.88
2019-03-02T10:48:17.041Z,13.05
2019-03-02T10:50:44.870Z,13.70
2019-03-02T10:53:12.230Z,16.50
2019-03-02T10:55:39.598Z,15.37
2019-03-02T10:58:06.923Z,15.80
2019-03-02T11:00:34.295Z,15.90
2019-03-02T11:03:02.232Z,15.53
2019-03-02T11:05:43.062Z,14.23
2019-03-02T11:08:28.890Z,14.40
2019-03-02T11:11:14.181Z,13.90
2019-03-02T11:13:45.937Z,14.50
2019-03-02T11:16:20.720Z,12.57
2019-03-02T11:18:49.685Z,12.50
2019-03-02T11:21:35.505Z,11.60
2019-03-02T11:24:05.260Z,12.00
2019-03-02T11:26:52.277Z,11.30
2019-03-02T11:29:22.182Z,10.03
2019-03-02T11:32:06.259Z,10.63
2019-03-02T11:34:51.590Z,10.00
2019-03-02T11:37:21.900Z,8.30
2019-03-02T11:39:56.952Z,9.03
2019-03-02T11:42:26.208Z,8.10
2019-03-02T11:44:57.891Z,8.98
2019-03-02T11:47:26.814Z,9.15
2019-03-02T11:49:58.552Z,8.93
2019-03-02T11:52:27.478Z,8.08
2019-03-02T11:55:04.381Z,9.35
2019-03-02T11:57:33.122Z,8.78
2019-03-02T12:00:04.760Z,9.65
2019-03-02T12:02:39.730Z,8.78
2019-03-02T12:05:21.015Z,8.08
2019-03-02T12:08:05.982Z,8.75
2019-03-02T12:10:40.726Z,7.90
2019-03-02T12:13:12.504Z,8.78
2019-03-02T12:15:49.307Z,8.05
2019-03-02T12:18:19.581Z,8.35
2019-03-02T12:20:57.638Z,8.83
2019-03-02T12:23:29.328Z,8.70
2019-03-02T12:26:11.010Z,8.80
2019-03-02T12:28:40.247Z,9.23
2019-03-02T12:31:28.090Z,9.65
2019-03-02T12:34:14.514Z,9.80
2019-03-02T12:36:43.564Z,10.20
2019-03-02T12:39:19.919Z,10.15
2019-03-02T12:42:01.012Z,10.70
2019-03-02T12:44:30.035Z,10.58
2019-03-02T12:47:07.851Z,11.30
2019-03-02T12:49:47.033Z,11.03
2019-03-02T12:52:16.631Z,10.95
2019-03-02T12:54:45.715Z,12.90
2019-03-02T12:57:17.458Z,12.18
2019-03-02T12:59:46.476Z,12.03
2019-03-02T13:02:15.439Z,12.55
2019-03-02T13:05:01.378Z,13.58
2019-03-02T13:07:33.093Z,13.85
2019-03-02T13:10:02.140Z,14.33
2019-03-02T13:12:34.147Z,14.03
2019-03-02T13:15:09.393Z,13.40
2019-03-02T13:17:45.541Z,14.87
2019-03-02T13:20:17.365Z,14.53
2019-03-02T13:22:48.321Z,13.18
2019-03-02T13:25:30.261Z,14.55
2019-03-02T13:28:05.051Z,14.15
2019-03-02T13:30:47.334Z,15.20
2019-03-02T13:33:23.315Z,14.15
2019-03-02T13:36:00.104Z,15.10
2019-03-02T13:38:29.857Z,14.63
2019-03-02T13:40:59.909Z,13.88
2019-03-02T13:43:40.867Z,14.98
2019-03-02T13:46:12.707Z,15.45
2019-03-02T13:48:47.515Z,14.73
2019-03-02T13:51:51.647Z,16.02
2019-03-02T13:54:23.441Z,15.50
2019-03-02T13:57:09.692Z,14.98
2019-03-02T13:59:55.079Z,16.37
2019-03-02T14:02:26.699Z,16.30
2019-03-02T14:05:07.167Z,17.87
2019-03-02T14:07:39.069Z,17.15
2019-03-02T14:10:24.066Z,16.85
2019-03-02T14:13:08.302Z,16.70
2019-03-02T14:15:42.160Z,17.37
2019-03-02T14:18:28.512Z,18.45
2019-03-02T14:21:01.375Z,16.82
2019-03-02T14:23:36.534Z,16.00
2019-03-02T14:26:21.664Z,16.60
2019-03-02T14:28:53.646Z,18.52
2019-03-02T14:31:39.021Z,17.20
2019-03-02T14:34:08.575Z,18.40
2019-03-02T14:36:37.899Z,17.27
2019-03-02T14:39:07.686Z,16.93
2019-03-02T14:41:53.177Z,17.70
2019-03-02T14:44:30.319Z,18.50
2019-03-02T14:47:00.012Z,19.30
2019-03-02T14:49:44.187Z,19.77
2019-03-02T14:52:33.206Z,18.62
2019-03-02T14:55:03.021Z,19.55
2019-03-02T14:57:34.939Z,19.48
2019-03-02T15:00:06.627Z,19.20
2019-03-02T15:02:52.675Z,20.90
2019-03-02T15:05:28.285Z,20.50
2019-03-02T15:07:58.964Z,21.60
2019-03-02T15:10:39.989Z,21.75
2019-03-02T15:13:09.027Z,21.82
2019-03-02T15:15:58.634Z,20.88
2019-03-02T15:18:38.907Z,21.42
2019-03-02T15:21:11.327Z,20.50
2019-03-02T15:23:44.271Z,21.97
2019-03-02T15:26:13.193Z,21.62
2019-03-02T15:28:44.905Z,21.60
2019-03-02T15:31:25.908Z,22.62
2019-03-02T15:33:54.859Z,23.62
2019-03-02T15:36:29.743Z,22.60
2019-03-02T15:38:58.710Z,22.27
2019-03-02T15:41:30.278Z,22.62
2019-03-02T15:44:02.237Z,21.17
2019-03-02T15:46:37.119Z,21.37
2019-03-02T15:49:18.512Z,23.92
2019-03-02T15:51:49.434Z,23.15
2019-03-02T15:54:21.024Z,23.25
2019-03-02T15:57:01.275Z,22.90
2019-03-02T15:59:36.069Z,23.50
2019-03-02T16:02:04.181Z,23.60
2019-03-02T16:04:35.442Z,24.00
2019-03-02T16:07:05.226Z,22.42
2019-03-02T16:09:43.058Z,23.80
2019-03-02T16:12:27.824Z,25.80
2019-03-02T16:15:13.530Z,23.50
2019-03-02T16:17:48.564Z,23.65
2019-03-02T16:20:18.723Z,22.87
2019-03-02T16:22:54.144Z,25.05
2019-03-02T16:25:39.916Z,24.05
2019-03-02T16:28:13.167Z,25.30
2019-03-02T16:30:58.510Z,23.22
2019-03-02T16:33:31.072Z,22.58
2019-03-02T16:36:03.633Z,21.95
2019-03-02T16:38:37.498Z,23.85
2019-03-02T16:41:06.494Z,23.57
2019-03-02T16:43:35.570Z,23.27
2019-03-02T16:46:04.660Z,24.52
2019-03-02T16:48:51.145Z,23.45
2019-03-02T16:51:36.140Z,23.45
2019-03-02T16:54:05.121Z,26.42
2019-03-02T16:56:36.607Z,24.92
2019-03-02T16:59:17.503Z,24.70
2019-03-02T17:01:46.504Z,23.02
2019-03-02T17:04:31.220Z,23.07
2019-03-02T17:07:06.008Z,24.05
2019-03-02T17:09:50.851Z,23.55
2019-03-02T17:12:35.877Z,23.42
2019-03-02T17:15:18.926Z,24.98
2019-03-02T17:17:49.218Z,22.87
2019-03-02T17:20:18.527Z,24.80
2019-03-02T17:22:53.410Z,24.25
2019-03-02T17:25:37.234Z,24.07
2019-03-02T17:28:22.573Z,25.12
2019-03-02T17:30:51.560Z,25.88
2019-03-02T17:33:32.387Z,27.02
2019-03-02T17:36:17.917Z,25.15
2019-03-02T17:39:02.773Z,24.45
2019-03-02T17:41:31.766Z,24.23
2019-03-02T17:44:03.707Z,24.27
2019-03-02T17:46:47.092Z,25.72
2019-03-02T17:49:32.956Z,23.65
2019-03-02T17:52:02.482Z,25.15
2019-03-02T17:54:51.235Z,23.87
2019-03-02T17:57:27.339Z,24.95
2019-03-02T18:00:08.455Z,23.77
2019-03-02T18:02:45.989Z,24.05
2019-03-02T18:05:28.682Z,24.65
2019-03-02T18:08:08.770Z,24.35
2019-03-02T18:10:39.238Z,22.85
2019-03-02T18:13:14.651Z,23.87
2019-03-02T18:16:00.387Z,23.50
2019-03-02T18:18:31.877Z,22.98
2019-03-02T18:20:58.786Z,24.75
2019-03-02T18:23:26.996Z,22.15
2019-03-02T18:25:55.856Z,23.83
2019-03-02T18:28:25.354Z,22.22
2019-03-02T18:30:53.621Z,20.25
2019-03-02T18:33:28.173Z,22.95
2019-03-02T18:36:00.433Z,23.07
2019-03-02T18:38:28.870Z,20.97
2019-03-02T18:40:56.757Z,22.07
2019-03-02T18:43:25.713Z,22.17
2019-03-02T18:45:56.229Z,20.20
2019-03-02T18:48:41.496Z,20.50
2019-03-02T18:51:20.625Z,20.90
2019-03-02T18:53:48.027Z,21.27
2019-03-02T18:56:15.465Z,19.30
2019-03-02T18:58:42.949Z,19.30
2019-03-02T19:01:11.179Z,20.45
2019-03-02T19:03:38.505Z,20.97
2019-03-02T19:06:05.863Z,19.92
2019-03-02T19:08:33.255Z,20.85
2019-03-02T19:11:00.580Z,23.47
2019-03-02T19:13:27.891Z,21.95
2019-03-02T19:15:55.195Z,21.42
2019-03-02T19:18:22.580Z,21.35
2019-03-02T19:20:49.861Z,20.57
2019-03-02T19:23:17.161Z,19.50
2019-03-02T19:25:44.463Z,22.13
2019-03-02T19:28:11.876Z,21.93
2019-03-02T19:30:39.157Z,21.40
2019-03-02T19:33:06.726Z,20.02
2019-03-02T19:35:34.073Z,20.92
2019-03-02T19:38:01.443Z,20.02
2019-03-02T19:40:29.855Z,20.12
2019-03-02T19:42:57.317Z,22.13
2019-03-02T19:45:24.621Z,19.45
2019-03-02T19:47:52.936Z,21.65
2019-03-02T19:50:20.765Z,20.90
2019-03-02T19:52:48.063Z,18.92
2019-03-02T19:55:18.105Z,24.87
2019-03-02T19:57:45.826Z,23.52
2019-03-02T20:00:14.748Z,23.32
2019-03-02T20:02:42.049Z,19.80
2019-03-02T20:05:09.478Z,21.80
2019-03-02T20:07:36.792Z,19.87
2019-03-02T20:10:05.630Z,21.00
2019-03-02T20:12:32.988Z,20.00
2019-03-02T20:15:00.285Z,21.82
2019-03-02T20:17:41.335Z,20.95
2019-03-02T20:20:13.122Z,21.27
2019-03-02T20:22:40.580Z,20.75
2019-03-02T20:25:09.713Z,20.35
2019-03-02T20:27:37.078Z,22.00
2019-03-02T20:30:05.966Z,20.30
2019-03-02T20:32:44.186Z,22.07
2019-03-02T20:38:04.046Z,21.02
2019-03-02T20:40:34.968Z,21.00
2019-03-02T20:43:15.326Z,21.60
2019-03-02T20:45:44.432Z,21.62
2019-03-02T20:48:11.807Z,19.87
2019-03-02T20:50:39.394Z,21.70
2019-03-02T20:53:33.638Z,23.95
2019-03-02T20:56:00.981Z,20.50
2019-03-02T20:58:28.672Z,22.27
2019-03-02T21:00:56.120Z,21.60
2019-03-02T21:03:33.594Z,22.60
2019-03-02T21:06:03.013Z,20.30
2019-03-02T21:08:31.044Z,22.60
2019-03-02T21:10:58.434Z,22.48
2019-03-02T21:13:40.323Z,22.52
2019-03-02T21:19:10.524Z,21.50
2019-03-02T21:21:50.879Z,21.87
2019-03-02T21:24:32.748Z,21.68
2019-03-02T21:27:01.562Z,22.05
2019-03-02T21:29:29.488Z,22.98
2019-03-02T21:32:10.449Z,22.55
2019-03-02T21:34:45.932Z,20.35
2019-03-02T21:37:13.373Z,21.57
2019-03-02T21:39:45.089Z,21.05
2019-03-02T21:42:49.913Z,21.68
2019-03-02T21:45:20.621Z,21.65
2019-03-02T21:47:50.520Z,21.55
2019-03-02T21:50:25.150Z,22.52
2019-03-02T21:53:01.695Z,20.52
2019-03-02T21:55:28.743Z,19.87
2019-03-02T21:57:56.070Z,18.35
2019-03-02T22:00:26.740Z,19.60
2019-03-02T22:02:56.813Z,20.30
2019-03-02T22:05:28.783Z,19.82
2019-03-02T22:07:56.198Z,20.20
2019-03-02T22:10:27.719Z,20.32
2019-03-02T22:12:56.190Z,19.32
2019-03-02T22:15:24.003Z,20.90
2019-03-02T22:17:52.798Z,20.17
2019-03-02T22:20:20.179Z,20.95
2019-03-02T22:22:47.510Z,20.20
2019-03-02T22:25:16.564Z,16.62
2019-03-02T22:27:43.861Z,16.75
2019-03-02T22:30:12.775Z,16.23
2019-03-02T22:32:40.071Z,16.95
2019-03-02T22:35:07.467Z,16.80
2019-03-02T22:37:34.753Z,17.00
2019-03-02T22:40:02.036Z,16.55
2019-03-02T22:42:29.390Z,17.57
2019-03-02T22:44:56.701Z,17.77
2019-03-02T22:47:24.067Z,16.05
2019-03-02T22:49:51.359Z,16.30
2019-03-02T22:52:18.639Z,18.02
2019-03-02T22:54:45.939Z,17.35
2019-03-02T22:57:13.257Z,17.60
2019-03-02T22:59:42.159Z,18.90
2019-03-02T23:02:17.071Z,18.25
2019-03-02T23:04:44.434Z,20.17
2019-03-02T23:07:11.819Z,19.45
2019-03-02T23:09:39.188Z,19.00
2019-03-02T23:12:07.443Z,20.48
2019-03-02T23:14:34.739Z,20.02
2019-03-02T23:17:02.038Z,23.07
2019-03-02T23:19:29.341Z,22.45
2019-03-02T23:21:57.425Z,22.67
2019-03-02T23:24:24.729Z,20.68
2019-03-02T23:26:52.069Z,21.10
2019-03-02T23:29:19.429Z,21.23
2019-03-02T23:31:47.181Z,21.65
2019-03-02T23:34:14.529Z,22.85
2019-03-02T23:36:41.891Z,20.57
2019-03-02T23:39:09.179Z,20.55
2019-03-02T23:41:36.489Z,21.25
2019-03-02T23:44:03.839Z,20.50
2019-03-02T23:46:31.488Z,20.37
2019-03-02T23:48:58.794Z,20.27
2019-03-02T23:51:26.185Z,19.70
2019-03-02T23:53:54.627Z,23.05
2019-03-02T23:56:21.911Z,20.02
2019-03-02T23:58:49.197Z,22.70
